Time;durP1;ratioP1;P1;durP2;ratioP2;P2;SDS_P1;SDS_P2;PMS_P1;PMS_P2;Temp;Humidity;BMP_temperature;BMP_pressure;BME280_temperature;BME280_humidity;BME280_pressure;Samples;Min_cycle;Max_cycle;Signal;HPM_P1;HPM_P2
2024/04/07 00:01:13;;;;;;;1.92;0.90;;;;;;;20.53;56.64;100256.69;5026572;28;20025;-67
2024/04/07 00:03:39;;;;;;;1.27;0.65;;;;;;;20.55;56.10;100253.53;5064621;28;20064;-67
2024/04/07 00:06:05;;;;;;;1.08;0.88;;;;;;;;;;5050008;28;20033;-67
2024/04/07 00:08:30;;;;;;;1.60;0.80;;;;;;;20.45;57.62;100238.16;5030320;28;20067;-67
2024/04/07 00:10:56;;;;;;;1.70;0.68;;;;;;;20.47;56.81;100241.22;5032028;28;20486;-67
2024/04/07 00:13:21;;;;;;;1.83;1.08;;;;;;;20.47;57.74;100246.69;5044952;28;20032;-67
2024/04/07 00:15:46;;;;;;;5.22;1.20;;;;;;;20.49;57.46;100236.09;5032069;28;20029;-67
2024/04/07 00:18:12;;;;;;;1.13;0.68;;;;;;;20.48;56.19;100231.81;5018019;28;20033;-67
2024/04/07 00:20:38;;;;;;;1.52;0.90;;;;;;;20.49;56.66;100228.66;5026816;28;20021;-67
2024/04/07 00:23:03;;;;;;;1.13;0.80;;;;;;;;;;5028079;28;20029;-67
2024/04/07 00:25:29;;;;;;;2.78;0.82;;;;;;;20.46;57.43;100226.03;5013967;28;20033;-67
2024/04/07 00:27:54;;;;;;;0.88;0.65;;;;;;;20.44;56.89;100220.97;5022612;28;20042;-67
2024/04/07 00:30:20;;;;;;;1.67;0.85;;;;;;;20.44;55.98;100225.69;5013737;28;20039;-67
2024/04/07 00:32:45;;;;;;;1.33;0.77;;;;;;;20.45;56.50;100221.72;5035233;28;20161;-67
2024/04/07 00:35:10;;;;;;;1.05;0.80;;;;;;;20.41;56.09;100210.88;5026884;28;20126;-67
2024/04/07 00:37:36;;;;;;;1.23;0.80;;;;;;;20.39;56.57;100207.03;5032349;28;20133;-67
2024/04/07 00:40:01;;;;;;;1.52;0.90;;;;;;;20.32;57.01;100207.25;5030823;28;20639;-67
2024/04/07 00:42:27;;;;;;;0.98;0.70;;;;;;;20.30;57.54;100210.41;5024219;28;20442;-67
2024/04/07 00:44:52;;;;;;;0.70;0.70;;;;;;;20.21;58.52;100207.50;5030785;28;20030;-67
2024/04/07 00:47:19;;;;;;;1.70;0.88;;;;;;;20.09;58.29;100205.44;5027285;28;20454;-67
2024/04/07 00:49:46;;;;;;;0.98;0.68;;;;;;;20.05;58.90;100195.81;5025014;28;20021;-66
2024/04/07 00:52:12;;;;;;;1.02;0.80;;;;;;;20.00;57.43;100190.84;5038961;28;20053;-66
2024/04/07 00:54:41;;;;;;;2.65;0.80;;;;;;;19.94;58.73;100196.06;5030097;28;20408;-66
2024/04/07 00:57:10;;;;;;;1.55;0.80;;;;;;;19.93;59.02;100189.09;5048508;28;20529;-66
2024/04/07 00:59:36;;;;;;;2.50;0.80;;;;;;;19.86;59.13;100174.84;5016818;28;20035;-66
2024/04/07 01:02:03;;;;;;;1.48;0.85;;;;;;;19.77;60.21;100167.22;5033482;28;20087;-66
2024/04/07 01:04:29;;;;;;;4.75;1.75;;;;;;;19.77;59.08;100165.28;5028597;28;20491;-66
2024/04/07 01:06:54;;;;;;;2.25;1.00;;;;;;;19.72;59.26;100163.03;5046626;28;20033;-66
2024/04/07 01:09:20;;;;;;;3.83;1.75;;;;;;;19.68;59.63;100164.34;5025720;28;20480;-66
2024/04/07 01:11:46;;;;;;;2.08;1.42;;;;;;;19.62;60.18;100166.81;5030649;28;20029;-66
2024/04/07 01:14:11;;;;;;;4.47;1.98;;;;;;;19.60;60.59;100163.75;5023323;28;20565;-66
2024/04/07 01:16:37;;;;;;;6.82;1.45;;;;;;;19.54;61.11;100157.25;5043145;28;20047;-66
2024/04/07 01:19:03;;;;;;;2.80;1.25;;;;;;;19.48;61.44;100156.22;5009419;28;20072;-66
2024/04/07 01:21:29;;;;;;;5.45;1.15;;;;;;;19.46;61.50;100155.13;5026349;28;20030;-66
2024/04/07 01:23:54;;;;;;;2.65;1.25;;;;;;;19.46;61.29;100149.66;5044172;28;20276;-66
2024/04/07 01:26:21;;;;;;;1.33;0.93;;;;;;;19.47;60.70;100151.94;5020872;28;20116;-67
2024/04/07 01:28:46;;;;;;;6.70;1.00;;;;;;;19.45;60.76;100137.22;5023812;28;20107;-67
2024/04/07 01:31:12;;;;;;;1.67;1.15;;;;;;;19.41;61.04;100133.78;5047595;28;20136;-67
2024/04/07 01:33:39;;;;;;;1.08;0.80;;;;;;;19.35;61.37;100125.34;5032329;28;20104;-68
2024/04/07 01:36:04;;;;;;;1.33;0.80;;;;;;;19.35;60.69;100130.81;5030355;28;20029;-67
2024/04/07 01:38:30;;;;;;;0.93;0.80;;;;;;;19.33;61.49;100133.19;5029477;28;20028;-67
2024/04/07 01:40:55;;;;;;;0.60;0.60;;;;;;;19.31;61.35;100146.47;5031148;28;20033;-67
2024/04/07 01:43:21;;;;;;;3.90;0.90;;;;;;;19.27;62.26;100150.47;5028794;28;20035;-67
2024/04/07 01:45:46;;;;;;;1.20;0.90;;;;;;;19.24;61.85;100171.19;5030132;28;20053;-67
2024/04/07 01:48:11;;;;;;;1.65;0.80;;;;;;;19.17;62.92;100179.56;5051885;28;20483;-67
2024/04/07 01:50:37;;;;;;;1.85;0.68;;;;;;;19.14;61.83;100182.38;5060627;28;20034;-67
2024/04/07 01:53:03;;;;;;;1.80;0.90;;;;;;;19.12;62.06;100185.53;5021881;28;20026;-67
2024/04/07 01:55:29;;;;;;;2.35;0.73;;;;;;;19.13;62.69;100181.59;5030842;28;20160;-67
2024/04/07 01:57:54;;;;;;;3.63;0.82;;;;;;;19.15;61.65;100172.97;5012989;28;20426;-67
2024/04/07 02:00:20;;;;;;;2.10;0.80;;;;;;;19.24;58.54;100175.91;5038572;28;20492;-67
2024/04/07 02:02:45;;;;;;;1.10;0.73;;;;;;;19.25;59.78;100164.56;5025737;28;20064;-67
2024/04/07 02:05:11;;;;;;;1.17;0.73;;;;;;;19.19;62.09;100160.03;5039258;28;20037;-67
2024/04/07 02:07:37;;;;;;;1.30;0.85;;;;;;;19.16;62.18;100150.72;5035502;28;20053;-67
2024/04/07 02:10:03;;;;;;;2.63;0.90;;;;;;;19.08;62.52;100152.09;5044530;28;20117;-67
2024/04/07 02:12:29;;;;;;;1.10;0.70;;;;;;;19.05;62.53;100152.91;5037688;28;20021;-67
2024/04/07 02:14:54;;;;;;;0.77;0.68;;;;;;;19.00;61.89;100141.75;5049521;28;20033;-67
2024/04/07 02:17:20;;;;;;;0.70;0.60;;;;;;;19.02;60.41;100142.09;5045327;28;20398;-67
2024/04/07 02:19:50;;;;;;;0.75;0.63;;;;;;;19.13;57.92;100129.72;5035281;28;20025;-67
2024/04/07 02:22:18;;;;;;;1.38;0.75;;;;;;;19.29;57.31;100137.16;5033983;28;20052;-67
2024/04/07 02:24:44;;;;;;;4.35;0.70;;;;;;;19.43;57.59;100128.66;5035214;28;20049;-67
2024/04/07 02:27:09;;;;;;;4.55;0.55;;;;;;;19.46;58.20;100128.56;5044825;28;20091;-67
2024/04/07 02:29:35;;;;;;;0.85;0.80;;;;;;;19.44;59.04;100128.22;5046052;28;20035;-67
2024/04/07 02:32:01;;;;;;;1.50;0.77;;;;;;;19.41;58.67;100131.84;5047971;28;20029;-67
2024/04/07 02:34:26;;;;;;;1.33;0.88;;;;;;;19.45;58.41;100129.75;5031425;28;20541;-67
2024/04/07 02:36:52;;;;;;;0.80;0.70;;;;;;;19.46;59.77;100136.78;5034842;28;20029;-67
2024/04/07 02:39:18;;;;;;;1.45;0.80;;;;;;;19.41;60.77;100139.25;5062762;28;20021;-67
2024/04/07 02:41:46;;;;;;;0.95;0.82;;;;;;;19.40;60.28;100127.56;5033274;28;20037;-67
2024/04/07 02:44:11;;;;;;;1.85;0.80;;;;;;;19.42;60.23;100135.31;5031299;28;20060;-67
2024/04/07 02:49:20;;;;;;;1.10;0.75;;;;;;;19.40;59.18;100130.28;5050892;28;20513;-67
2024/04/07 02:51:46;;;;;;;1.75;0.90;;;;;;;19.53;58.04;100125.66;5037929;28;20017;-67
2024/04/07 02:54:11;;;;;;;2.25;0.80;;;;;;;19.51;58.46;100122.59;5026986;28;20032;-67
2024/04/07 02:56:37;;;;;;;1.20;0.90;;;;;;;19.52;58.26;100124.13;5042976;28;20021;-66
2024/04/07 02:59:03;;;;;;;0.93;0.55;;;;;;;19.55;57.99;100112.34;5033472;28;20037;-66
2024/04/07 03:01:29;;;;;;;1.05;0.90;;;;;;;19.55;58.51;100117.81;5032561;28;20510;-68
2024/04/07 03:03:54;;;;;;;0.77;0.70;;;;;;;19.57;58.34;100115.41;5033647;28;20041;-67
2024/04/07 03:06:20;;;;;;;0.82;0.70;;;;;;;19.60;58.38;100132.91;5017603;28;20037;-67
2024/04/07 03:08:46;;;;;;;1.58;0.70;;;;;;;19.55;60.82;100141.66;5032307;28;20491;-66
2024/04/07 03:11:12;;;;;;;0.70;0.70;;;;;;;19.55;60.78;100134.19;5051883;28;20044;-66
2024/04/07 03:13:38;;;;;;;1.77;0.68;;;;;;;19.57;60.84;100140.00;5034582;28;20091;-66
2024/04/07 03:16:10;;;;;;;1.20;0.75;;;;;;;19.49;62.17;100140.63;5029964;28;20022;-66
2024/04/07 03:18:36;;;;;;;0.85;0.68;;;;;;;19.44;62.96;100136.44;5031224;28;20091;-68
2024/04/07 03:21:05;;;;;;;3.92;0.82;;;;;;;19.44;62.74;100141.13;5047801;28;20121;-66
2024/04/07 03:23:31;;;;;;;1.08;0.80;;;;;;;19.43;62.55;100143.09;5036145;28;20048;-67
2024/04/07 03:25:57;;;;;;;1.98;0.75;;;;;;;19.41;61.72;100152.91;5036473;28;20372;-66
2024/04/07 03:28:22;;;;;;;1.90;0.65;;;;;;;19.44;58.11;100155.56;5016795;28;20105;-66
2024/04/07 03:30:48;;;;;;;1.77;0.82;;;;;;;19.44;57.68;100152.81;5032759;28;20025;-66
2024/04/07 03:33:14;;;;;;;0.85;0.60;;;;;;;19.47;57.59;100157.41;5035158;28;20037;-66
2024/04/07 03:35:39;;;;;;;0.73;0.70;;;;;;;19.52;56.89;100162.38;5032748;28;20029;-66
2024/04/07 03:38:05;;;;;;;1.15;0.60;;;;;;;19.56;56.70;100159.56;5030471;28;20034;-66
2024/04/07 03:40:30;;;;;;;3.88;0.70;;;;;;;19.66;55.94;100155.81;5029621;28;20372;-67
2024/04/07 03:42:56;;;;;;;1.35;1.02;;;;;;;19.67;56.19;100158.09;5025767;28;20041;-66
2024/04/07 03:45:21;;;;;;;0.82;0.60;;;;;;;19.76;55.61;100152.03;5033499;28;20028;-66
2024/04/07 03:47:48;;;;;;;2.92;0.90;;;;;;;19.84;55.17;100155.34;5032689;28;20490;-67
2024/04/07 03:50:14;;;;;;;1.50;0.80;;;;;;;19.73;55.38;100139.22;5031184;28;20037;-66
2024/04/07 03:52:40;;;;;;;2.72;0.75;;;;;;;19.78;55.68;100135.97;5043081;28;20024;-67
2024/04/07 03:55:06;;;;;;;1.90;0.95;;;;;;;19.88;55.16;100139.63;5044541;28;20120;-67
2024/04/07 03:57:32;;;;;;;0.65;0.65;;;;;;;19.84;55.35;100128.78;5029996;28;20168;-66
2024/04/07 03:59:57;;;;;;;0.57;0.45;;;;;;;19.88;54.93;100136.91;5048846;28;20052;-66
2024/04/07 04:02:30;;;;;;;1.52;0.73;;;;;;;19.84;54.95;100131.50;5032317;28;20029;-67
2024/04/07 04:04:59;;;;;;;1.05;0.63;;;;;;;19.84;55.27;100119.81;5053252;28;20036;-66
2024/04/07 04:07:29;;;;;;;2.75;0.98;;;;;;;19.83;56.06;100110.06;5033765;28;20438;-66
2024/04/07 04:09:55;;;;;;;1.50;0.90;;;;;;;19.82;56.74;100130.41;5048829;28;20528;-66
2024/04/07 04:12:22;;;;;;;0.88;0.70;;;;;;;19.77;55.37;100135.22;5026949;28;20033;-67
2024/04/07 04:14:50;;;;;;;1.60;0.70;;;;;;;19.86;54.45;100139.28;5031167;28;20438;-66
2024/04/07 04:17:15;;;;;;;1.35;0.98;;;;;;;19.83;54.84;100151.84;5032827;28;20026;-66
2024/04/07 04:19:41;;;;;;;1.90;0.82;;;;;;;19.83;55.10;100142.88;5023646;28;20041;-67
2024/04/07 04:22:07;;;;;;;1.35;0.70;;;;;;;19.80;55.16;100130.84;5031484;28;20025;-67
2024/04/07 04:24:33;;;;;;;2.45;0.70;;;;;;;19.84;54.84;100142.44;5029990;28;20037;-67
2024/04/07 04:26:58;;;;;;;3.33;0.90;;;;;;;19.86;54.81;100156.44;5025568;28;20033;-67
2024/04/07 04:29:24;;;;;;;1.95;0.65;;;;;;;19.88;54.63;100156.03;5028395;28;20041;-67
2024/04/07 04:31:49;;;;;;;0.85;0.80;;;;;;;19.85;54.66;100159.63;5061779;28;20028;-66
2024/04/07 04:34:14;;;;;;;2.35;0.85;;;;;;;19.85;54.64;100173.28;5032428;28;20119;-66
2024/04/07 04:36:40;;;;;;;1.52;1.00;;;;;;;19.70;54.29;100187.28;5028508;28;20474;-67
2024/04/07 04:39:06;;;;;;;1.13;0.93;;;;;;;19.84;54.21;100174.50;5031586;28;20049;-66
2024/04/07 04:41:33;;;;;;;3.40;0.82;;;;;;;19.74;53.96;100203.63;5029714;28;20083;-67
2024/04/07 04:43:58;;;;;;;1.65;0.68;;;;;;;19.83;53.94;100205.75;5032319;28;20045;-67
2024/04/07 04:46:25;;;;;;;0.85;0.80;;;;;;;19.91;54.12;100220.78;5022556;28;20076;-67
2024/04/07 04:48:51;;;;;;;1.20;0.98;;;;;;;19.82;54.85;100215.16;5026971;28;20087;-67
2024/04/07 04:51:17;;;;;;;2.13;1.10;;;;;;;19.91;54.68;100223.50;5049559;28;20402;-67
2024/04/07 04:53:42;;;;;;;1.55;0.82;;;;;;;19.87;55.10;100231.03;5044139;28;20060;-67
2024/04/07 04:56:08;;;;;;;1.30;0.90;;;;;;;19.79;55.27;100236.69;5049347;28;20483;-67
2024/04/07 04:58:34;;;;;;;4.82;0.90;;;;;;;19.70;55.30;100252.13;5044416;28;20446;-67
2024/04/07 05:01:13;;;;;;;1.05;0.73;;;;;;;19.66;54.94;100246.75;5043766;28;20029;-67
2024/04/07 05:03:39;;;;;;;1.55;1.00;;;;;;;19.59;55.45;100251.59;5041108;28;20384;-67
2024/04/07 05:06:10;;;;;;;2.03;1.00;;;;;;;19.58;55.69;100255.53;5012292;28;20032;-67
2024/04/07 05:08:35;;;;;;;1.95;0.80;;;;;;;19.57;54.99;100257.50;5029130;28;20121;-67
2024/04/07 05:11:05;;;;;;;1.23;0.70;;;;;;;19.59;55.05;100273.44;5029158;28;20086;-67
2024/04/07 05:13:31;;;;;;;2.10;0.90;;;;;;;19.56;54.86;100286.03;5035774;28;20033;-67
2024/04/07 05:15:57;;;;;;;1.70;0.70;;;;;;;19.41;54.85;100282.06;5028538;28;20028;-66
2024/04/07 05:18:22;;;;;;;1.08;0.80;;;;;;;19.43;54.93;100290.59;5054652;28;20495;-66
2024/04/07 05:20:49;;;;;;;1.08;0.82;;;;;;;19.53;54.77;100303.25;5032321;28;20092;-67
2024/04/07 05:23:15;;;;;;;0.80;0.68;;;;;;;19.40;54.84;100316.03;5029353;28;20148;-66
2024/04/07 05:25:41;;;;;;;0.93;0.52;;;;;;;19.36;55.12;100334.44;5029018;28;20117;-66
2024/04/07 05:28:07;;;;;;;1.52;0.77;;;;;;;19.46;56.39;100338.91;5030197;28;20025;-66
2024/04/07 05:30:34;;;;;;;4.97;0.70;;;;;;;19.45;56.80;100351.03;5030118;28;20030;-68
2024/04/07 05:33:00;;;;;;;1.50;1.10;;;;;;;19.71;57.02;100369.22;5027895;28;20048;-67
2024/04/07 05:35:26;;;;;;;2.97;0.80;;;;;;;19.78;57.21;100412.78;5047045;28;20022;-67
2024/04/07 05:37:51;;;;;;;4.00;0.80;;;;;;;19.93;57.02;100428.88;5046401;28;20034;-68
2024/04/07 05:40:17;;;;;;;2.15;0.93;;;;;;;19.76;57.70;100431.56;5032960;28;20025;-67
2024/04/07 05:42:42;;;;;;;2.38;0.90;;;;;;;19.66;58.30;100442.72;5032015;28;20029;-67
2024/04/07 05:45:07;;;;;;;1.20;0.77;;;;;;;19.47;60.10;100449.72;5034195;28;20396;-67
2024/04/07 05:47:33;;;;;;;3.45;2.13;;;;;;;19.51;60.40;100466.81;5033773;28;20026;-67
2024/04/07 05:49:58;;;;;;;2.83;0.47;;;;;;;19.62;60.91;100480.28;5048485;28;20025;-67
2024/04/07 05:52:24;;;;;;;4.80;0.70;;;;;;;19.32;62.45;100489.44;5052341;28;20476;-67
2024/04/07 05:54:49;;;;;;;0.85;0.50;;;;;;;19.24;63.28;100484.50;5031109;28;20399;-67
2024/04/07 05:57:15;;;;;;;1.65;0.60;;;;;;;19.42;63.32;100504.84;5032189;28;20022;-67
2024/04/07 05:59:40;;;;;;;3.60;0.75;;;;;;;19.37;64.01;100516.28;5034159;28;20116;-67
2024/04/07 06:02:06;;;;;;;1.25;0.82;;;;;;;19.47;63.43;100514.53;5032159;28;20515;-67
2024/04/07 06:04:32;;;;;;;0.85;0.65;;;;;;;19.59;63.60;100509.22;5068116;28;21418;-67
2024/04/07 06:06:58;;;;;;;1.02;0.90;;;;;;;19.54;63.86;100508.94;5035783;28;20033;-68
2024/04/07 06:09:23;;;;;;;1.75;0.60;;;;;;;19.68;63.26;100509.47;5031809;28;20032;-67
2024/04/07 06:11:49;;;;;;;4.32;0.63;;;;;;;19.65;63.41;100521.22;5031408;28;20041;-67
2024/04/07 06:14:14;;;;;;;1.67;0.70;;;;;;;19.69;63.81;100523.88;5033172;28;20499;-67
2024/04/07 06:16:39;;;;;;;1.95;0.60;;;;;;;19.68;64.11;100531.31;5032059;28;20033;-67
2024/04/07 06:19:05;;;;;;;0.50;0.50;;;;;;;19.71;63.79;100532.41;5048525;28;20556;-67
2024/04/07 06:21:31;;;;;;;0.90;0.60;;;;;;;19.82;63.86;100529.50;5024719;28;20136;-68
2024/04/07 06:23:56;;;;;;;0.88;0.57;;;;;;;19.86;63.81;100535.66;5029498;28;20095;-68
2024/04/07 06:26:22;;;;;;;1.73;0.70;;;;;;;19.75;63.54;100536.63;5040488;28;20045;-66
2024/04/07 06:28:48;;;;;;;2.22;0.73;;;;;;;19.87;63.35;100537.97;5046140;28;20034;-66
2024/04/07 06:31:13;;;;;;;2.88;0.47;;;;;;;19.84;63.54;100557.94;5030010;28;20033;-66
2024/04/07 06:33:39;;;;;;;1.95;0.70;;;;;;;19.98;63.09;100557.66;5043673;28;20021;-67
2024/04/07 06:36:05;;;;;;;4.57;0.60;;;;;;;19.89;63.05;100545.75;5028211;28;20517;-67
2024/04/07 06:38:31;;;;;;;2.55;0.70;;;;;;;19.99;63.14;100544.78;5025981;28;20025;-67
2024/04/07 06:40:56;;;;;;;2.92;0.65;;;;;;;20.06;62.53;100561.03;5018118;28;20120;-67
2024/04/07 06:43:22;;;;;;;1.70;0.60;;;;;;;20.05;62.55;100570.44;5032659;28;20029;-67
2024/04/07 06:45:47;;;;;;;0.65;0.43;;;;;;;19.99;63.45;100569.38;5028503;28;20085;-67
2024/04/07 06:48:13;;;;;;;3.47;0.52;;;;;;;19.97;63.11;100575.28;5029967;28;20037;-67
2024/04/07 06:50:39;;;;;;;0.40;0.30;;;;;;;20.10;63.04;100573.44;5030686;28;20056;-67
2024/04/07 06:53:04;;;;;;;1.10;0.55;;;;;;;20.22;62.24;100558.41;5030606;28;20044;-67
2024/04/07 06:55:30;;;;;;;1.48;0.68;;;;;;;20.22;62.11;100572.84;5030279;28;20025;-67
2024/04/07 06:57:56;;;;;;;4.00;0.60;;;;;;;20.28;62.49;100565.69;5035678;28;20485;-67
2024/04/07 07:00:21;;;;;;;1.00;0.50;;;;;;;20.39;61.92;100570.94;5033637;28;20044;-67
2024/04/07 07:02:47;;;;;;;0.85;0.47;;;;;;;20.32;62.29;100576.56;5027601;28;20037;-67
2024/04/07 07:05:12;;;;;;;2.70;0.75;;;;;;;20.30;61.73;100570.75;5033384;28;20029;-67
2024/04/07 07:07:38;;;;;;;0.50;0.50;;;;;;;20.50;61.85;100585.16;5045124;28;20029;-67
2024/04/07 07:10:04;;;;;;;0.63;0.40;;;;;;;20.55;61.33;100596.38;5028744;28;20399;-68
2024/04/07 07:12:33;;;;;;;1.58;0.77;;;;;;;20.59;61.23;100594.34;5024653;28;20491;-67
2024/04/07 07:14:58;;;;;;;0.60;0.30;;;;;;;20.71;60.93;100590.19;5016999;28;20056;-67
2024/04/07 07:17:24;;;;;;;0.80;0.22;;;;;;;20.59;60.71;100627.19;5031392;28;20135;-67
2024/04/07 07:19:50;;;;;;;5.35;0.63;;;;;;;20.46;61.24;100628.25;5016938;28;20083;-67
2024/04/07 07:22:15;;;;;;;1.10;0.47;;;;;;;20.30;62.18;100615.28;5030626;28;20483;-68
2024/04/07 07:24:41;;;;;;;3.03;0.43;;;;;;;20.26;61.92;100613.81;5031776;28;20502;-67
2024/04/07 07:27:06;;;;;;;1.55;0.60;;;;;;;20.53;62.05;100590.56;5027330;28;20080;-68
2024/04/07 07:29:32;;;;;;;0.30;0.30;;;;;;;20.59;61.97;100601.78;5023303;28;20540;-67
2024/04/07 07:31:57;;;;;;;1.20;0.60;;;;;;;20.44;62.01;100630.66;5038869;28;20033;-67
2024/04/07 07:34:24;;;;;;;3.40;0.38;;;;;;;20.55;61.88;100631.19;5030434;28;20375;-67
2024/04/07 07:36:50;;;;;;;1.95;0.50;;;;;;;20.69;61.78;100614.47;5029392;28;20044;-67
2024/04/07 07:39:15;;;;;;;2.17;0.63;;;;;;;20.69;60.74;100611.75;5030441;28;20033;-67
2024/04/07 07:41:41;;;;;;;0.52;0.25;;;;;;;20.89;60.97;100601.50;5026927;28;20486;-67
2024/04/07 07:44:06;;;;;;;1.73;1.00;;;;;;;21.05;60.94;100603.50;5012347;28;20116;-67
2024/04/07 07:46:32;;;;;;;0.60;0.60;;;;;;;21.13;59.96;100597.44;5061166;28;20065;-67
2024/04/07 07:48:57;;;;;;;0.65;0.43;;;;;;;21.26;60.16;100614.75;5047150;28;20025;-68
2024/04/07 07:51:24;;;;;;;1.30;0.40;;;;;;;21.22;58.37;100605.06;5027617;28;20524;-68
2024/04/07 07:53:50;;;;;;;0.30;0.20;;;;;;;21.22;58.00;100594.88;5039073;28;20050;-67
2024/04/07 07:56:16;;;;;;;2.63;0.50;;;;;;;21.31;58.75;100578.59;5041806;28;20021;-67
2024/04/07 07:58:41;;;;;;;1.80;0.30;;;;;;;21.41;57.96;100583.03;5035451;28;20066;-67
2024/04/07 08:01:07;;;;;;;0.80;0.40;;;;;;;21.44;57.43;100592.38;5046982;28;20029;-67
2024/04/07 08:03:33;;;;;;;0.20;0.20;;;;;;;21.56;56.90;100614.38;5063979;28;20040;-68
2024/04/07 08:05:59;;;;;;;0.20;0.20;;;;;;;21.64;56.77;100608.72;5031923;28;20030;-67
2024/04/07 08:08:24;;;;;;;0.30;0.22;;;;;;;21.71;56.24;100606.56;5027536;28;20034;-67
2024/04/07 08:10:50;;;;;;;0.93;0.25;;;;;;;21.66;56.23;100622.78;5027954;28;20175;-67
2024/04/07 08:13:18;;;;;;;3.65;0.30;;;;;;;21.67;56.61;100633.31;5026606;28;20128;-68
2024/04/07 08:15:44;;;;;;;0.85;0.30;;;;;;;21.69;56.50;100641.09;5025830;28;20025;-68
2024/04/07 08:18:11;;;;;;;0.70;0.20;;;;;;;21.62;55.87;100652.25;5048655;28;20033;-68
2024/04/07 08:20:37;;;;;;;0.50;0.17;;;;;;;21.40;55.43;100669.22;5025719;28;20033;-68
2024/04/07 08:23:03;;;;;;;0.95;0.25;;;;;;;21.46;55.74;100656.53;5046465;28;20025;-67
2024/04/07 08:25:28;;;;;;;2.50;0.32;;;;;;;21.37;56.39;100648.13;5029832;28;20034;-68
2024/04/07 08:27:54;;;;;;;1.13;0.30;;;;;;;21.14;56.54;100661.19;5035266;28;20479;-67
2024/04/07 08:30:20;;;;;;;2.78;0.30;;;;;;;20.82;57.07;100680.28;5028424;28;20029;-67
2024/04/07 08:32:45;;;;;;;1.85;0.20;;;;;;;21.02;57.18;100672.84;5026688;28;20034;-67
2024/04/07 08:35:12;;;;;;;0.10;0.10;;;;;;;21.11;59.79;100640.94;5031584;28;20091;-67
2024/04/07 08:37:40;;;;;;;0.50;0.10;;;;;;;20.90;57.67;100648.81;5047860;28;20041;-67
2024/04/07 08:40:09;;;;;;;0.73;0.20;;;;;;;20.64;59.47;100683.38;5048006;28;20172;-67
2024/04/07 08:42:40;;;;;;;1.13;0.20;;;;;;;20.57;57.88;100700.75;5061135;28;20039;-67
2024/04/07 08:45:07;;;;;;;2.25;0.10;;;;;;;20.44;56.65;100685.38;5044321;28;20061;-67
2024/04/07 08:47:35;;;;;;;0.20;0.20;;;;;;;20.57;56.42;100698.00;5063586;28;20135;-67
2024/04/07 08:50:02;;;;;;;0.55;0.20;;;;;;;20.62;56.22;100704.94;5031068;28;20535;-68
2024/04/07 08:52:29;;;;;;;0.30;0.10;;;;;;;20.85;55.34;100704.84;5032452;28;20845;-68
2024/04/07 08:54:55;;;;;;;0.00;0.00;;;;;;;20.89;54.77;100700.06;5023768;28;20190;-67
2024/04/07 08:57:22;;;;;;;0.35;0.20;;;;;;;21.03;54.77;100696.28;5046957;28;20100;-67
2024/04/07 08:59:48;;;;;;;1.95;0.20;;;;;;;21.10;53.85;100676.97;5031487;28;20037;-68
2024/04/07 09:02:15;;;;;;;0.40;0.22;;;;;;;21.12;54.02;100678.06;5028947;28;20557;-68
2024/04/07 09:04:41;;;;;;;1.63;0.10;;;;;;;20.88;54.55;100662.16;5012546;28;20029;-67
2024/04/07 09:07:07;;;;;;;0.38;0.20;;;;;;;20.87;55.16;100655.13;5045713;28;20032;-67
2024/04/07 09:09:33;;;;;;;0.63;0.13;;;;;;;21.00;54.71;100656.78;5040684;28;20495;-67
2024/04/07 09:11:59;;;;;;;0.20;0.10;;;;;;;21.11;54.57;100657.38;5042297;28;20033;-67
2024/04/07 09:14:28;;;;;;;0.98;0.30;;;;;;;21.19;54.37;100669.72;5045659;28;20040;-68
2024/04/07 09:17:20;;;;;;;1.95;0.20;;;;;;;21.25;54.43;100654.28;5041080;28;20025;-67
2024/04/07 09:19:46;;;;;;;0.30;0.20;;;;;;;21.31;54.26;100668.28;5049050;28;20115;-67
2024/04/07 09:22:11;;;;;;;1.38;0.50;;;;;;;21.44;54.14;100672.66;5036657;28;20495;-67
2024/04/07 09:24:38;;;;;;;0.22;0.20;;;;;;;21.47;53.74;100669.03;5050171;28;20041;-68
2024/04/07 09:27:12;;;;;;;0.17;0.10;;;;;;;21.58;53.77;100663.31;5050557;28;20025;-68
2024/04/07 09:29:41;;;;;;;0.50;0.30;;;;;;;21.60;54.28;100669.13;5051695;28;20083;-67
2024/04/07 09:32:08;;;;;;;2.63;0.20;;;;;;;21.69;53.83;100677.50;5040784;28;20025;-67
2024/04/07 09:34:35;;;;;;;0.32;0.30;;;;;;;21.86;53.92;100675.53;5068229;28;20037;-68
2024/04/07 09:37:02;;;;;;;0.50;0.20;;;;;;;21.95;53.69;100692.19;5032618;28;20071;-67
2024/04/07 09:39:28;;;;;;;2.25;0.30;;;;;;;22.33;52.85;100677.41;5030300;28;20030;-67
2024/04/07 09:41:55;;;;;;;1.25;0.40;;;;;;;22.63;52.42;100673.44;5034457;28;20053;-67
2024/04/07 09:44:21;;;;;;;0.85;0.15;;;;;;;23.05;51.44;100671.44;5034674;28;20029;-67
2024/04/07 09:46:47;;;;;;;2.42;0.30;;;;;;;23.26;50.48;100671.56;5015961;28;20029;-67
2024/04/07 09:49:14;;;;;;;0.10;0.10;;;;;;;23.60;48.40;100686.59;5034307;28;20119;-67
2024/04/07 09:51:52;;;;;;;1.88;0.28;;;;;;;23.67;49.44;100680.88;5017308;28;20502;-67
2024/04/07 09:54:25;;;;;;;3.15;0.32;;;;;;;23.80;48.60;100663.13;5039396;28;20049;-67
2024/04/07 09:56:52;;;;;;;0.35;0.30;;;;;;;23.75;48.32;100679.44;5015890;28;20033;-68
2024/04/07 09:59:18;;;;;;;2.63;0.40;;;;;;;23.87;48.36;100684.88;5048684;28;20033;-68
2024/04/07 10:01:44;;;;;;;1.52;0.40;;;;;;;24.00;48.47;100688.38;5051584;28;20033;-67
2024/04/07 10:04:12;;;;;;;0.70;0.30;;;;;;;24.06;48.44;100677.63;5032450;28;20052;-67
2024/04/07 10:06:39;;;;;;;1.50;0.40;;;;;;;24.03;47.55;100676.50;5038352;28;20038;-68
2024/04/07 10:09:05;;;;;;;2.25;0.30;;;;;;;23.89;47.77;100682.47;5065849;28;20152;-67
2024/04/07 10:11:31;;;;;;;0.60;0.50;;;;;;;24.21;47.52;100688.88;5031314;28;20029;-68
2024/04/07 10:13:57;;;;;;;0.25;0.20;;;;;;;24.27;46.76;100676.09;5039982;28;20047;-67
2024/04/07 10:16:27;;;;;;;1.92;0.30;;;;;;;24.22;47.22;100671.91;5028990;28;20018;-68
2024/04/07 10:18:52;;;;;;;1.38;0.20;;;;;;;24.22;46.79;100679.41;5030207;28;20033;-68
2024/04/07 10:21:19;;;;;;;0.20;0.13;;;;;;;24.39;47.12;100676.00;5037828;28;20067;-67
2024/04/07 10:23:45;;;;;;;0.17;0.17;;;;;;;24.56;47.22;100679.34;5024775;28;20029;-68
2024/04/07 10:26:15;;;;;;;0.28;0.20;;;;;;;24.44;46.53;100669.94;5026347;28;20176;-67
2024/04/07 10:28:49;;;;;;;0.70;0.20;;;;;;;24.73;46.25;100675.19;5033716;28;20032;-67
2024/04/07 10:31:31;;;;;;;0.75;0.20;;;;;;;24.71;46.50;100680.34;5027675;28;20025;-67
2024/04/07 10:33:56;;;;;;;2.15;0.20;;;;;;;24.62;46.42;100683.06;5026671;28;20033;-66
2024/04/07 10:36:25;;;;;;;0.47;0.17;;;;;;;24.44;47.12;100689.22;5028131;28;20025;-67
2024/04/07 10:38:57;;;;;;;1.05;0.30;;;;;;;24.49;46.82;100679.59;5067733;28;20033;-67
2024/04/07 10:41:33;;;;;;;0.30;0.20;;;;;;;24.67;46.94;100676.97;5041861;28;20490;-67
2024/04/07 10:44:01;;;;;;;2.63;0.30;;;;;;;24.88;46.43;100676.97;5030645;28;20518;-67
2024/04/07 10:46:28;;;;;;;0.73;0.30;;;;;;;24.85;46.57;100679.88;5030005;28;20048;-67
2024/04/07 10:48:57;;;;;;;0.63;0.20;;;;;;;24.96;46.07;100678.22;5025781;28;20037;-68
2024/04/07 10:51:23;;;;;;;3.30;0.28;;;;;;;24.89;46.32;100680.50;5030307;28;20073;-67
2024/04/07 10:53:59;;;;;;;1.52;0.30;;;;;;;24.65;46.69;100682.94;5029120;28;20065;-67
2024/04/07 10:56:25;;;;;;;2.15;0.55;;;;;;;24.52;47.03;100692.47;5044770;28;20036;-68
2024/04/07 10:58:51;;;;;;;0.22;0.13;;;;;;;24.33;47.22;100697.06;5059965;28;20073;-67
2024/04/07 11:01:17;;;;;;;2.65;0.68;;;;;;;24.41;46.78;100687.34;5038155;28;20029;-68
2024/04/07 11:03:43;;;;;;;1.08;0.30;;;;;;;24.65;46.99;100682.16;5034822;28;20034;-68
2024/04/07 11:06:09;;;;;;;2.72;0.25;;;;;;;24.70;46.59;100689.84;5046046;28;20045;-67
2024/04/07 11:08:36;;;;;;;0.57;0.30;;;;;;;24.58;46.52;100698.97;5027697;28;20091;-68
2024/04/07 11:11:02;;;;;;;0.93;0.22;;;;;;;24.42;47.22;100693.63;5027981;28;20510;-67
2024/04/07 11:13:28;;;;;;;0.45;0.32;;;;;;;24.16;47.12;100695.72;5028949;28;20304;-67
2024/04/07 11:15:54;;;;;;;2.95;0.32;;;;;;;24.34;47.26;100698.63;5028987;28;20038;-67
2024/04/07 11:18:21;;;;;;;0.85;0.20;;;;;;;24.40;46.92;100698.81;5062231;28;20036;-66
2024/04/07 11:20:48;;;;;;;0.50;0.30;;;;;;;24.45;46.75;100707.28;5032127;28;20132;-67
2024/04/07 11:23:14;;;;;;;0.30;0.30;;;;;;;24.53;46.60;100705.03;5033067;28;20033;-67
2024/04/07 11:25:41;;;;;;;1.30;0.40;;;;;;;24.57;46.28;100711.94;5028642;28;20022;-66